sensor_id;sensor_type;location;lat;lon;timestamp;P1;durP1;ratioP1;P2;durP2;ratioP2
2966;SDS011;1493;51.496;7.210;2024-02-26T00:00:03;3.30;;;1.73;;
2966;SDS011;1493;51.496;7.210;2024-02-26T00:02:34;2.70;;;1.47;;
2966;SDS011;1493;51.496;7.210;2024-02-26T00:05:03;3.40;;;1.67;;
2966;SDS011;1493;51.496;7.210;2024-02-26T00:07:31;2.93;;;1.53;;
2966;SDS011;1493;51.496;7.210;2024-02-26T00:09:59;2.63;;;1.30;;
2966;SDS011;1493;51.496;7.210;2024-02-26T00:12:26;1.93;;;1.30;;
2966;SDS011;1493;51.496;7.210;2024-02-26T00:14:53;3.53;;;1.57;;
2966;SDS011;1493;51.496;7.210;2024-02-26T00:17:21;2.77;;;1.50;;
2966;SDS011;1493;51.496;7.210;2024-02-26T00:19:48;2.90;;;1.50;;
2966;SDS011;1493;51.496;7.210;2024-02-26T00:22:15;2.33;;;1.50;;
2966;SDS011;1493;51.496;7.210;2024-02-26T00:24:42;2.10;;;1.27;;
2966;SDS011;1493;51.496;7.210;2024-02-26T00:27:10;2.10;;;1.30;;
2966;SDS011;1493;51.496;7.210;2024-02-26T00:29:37;3.00;;;1.40;;
2966;SDS011;1493;51.496;7.210;2024-02-26T00:32:04;1.90;;;1.47;;
2966;SDS011;1493;51.496;7.210;2024-02-26T00:34:31;3.80;;;1.77;;
2966;SDS011;1493;51.496;7.210;2024-02-26T00:36:58;1.93;;;1.33;;
2966;SDS011;1493;51.496;7.210;2024-02-26T00:39:25;3.90;;;1.80;;
2966;SDS011;1493;51.496;7.210;2024-02-26T00:41:52;2.80;;;1.20;;
2966;SDS011;1493;51.496;7.210;2024-02-26T00:44:20;2.90;;;1.60;;
2966;SDS011;1493;51.496;7.210;2024-02-26T00:46:47;2.07;;;1.60;;
2966;SDS011;1493;51.496;7.210;2024-02-26T00:49:13;2.70;;;1.60;;
2966;SDS011;1493;51.496;7.210;2024-02-26T00:51:40;3.20;;;1.10;;
2966;SDS011;1493;51.496;7.210;2024-02-26T00:54:07;3.77;;;1.60;;
2966;SDS011;1493;51.496;7.210;2024-02-26T00:56:34;3.63;;;1.90;;
2966;SDS011;1493;51.496;7.210;2024-02-26T00:59:01;2.30;;;1.60;;
2966;SDS011;1493;51.496;7.210;2024-02-26T01:01:29;2.10;;;1.40;;
2966;SDS011;1493;51.496;7.210;2024-02-26T01:03:56;2.63;;;1.67;;
2966;SDS011;1493;51.496;7.210;2024-02-26T01:06:22;4.27;;;1.57;;
2966;SDS011;1493;51.496;7.210;2024-02-26T01:08:49;2.30;;;1.53;;
2966;SDS011;1493;51.496;7.210;2024-02-26T01:11:16;3.03;;;1.63;;
2966;SDS011;1493;51.496;7.210;2024-02-26T01:13:43;2.47;;;1.73;;
2966;SDS011;1493;51.496;7.210;2024-02-26T01:16:10;3.37;;;1.93;;
2966;SDS011;1493;51.496;7.210;2024-02-26T01:18:38;2.73;;;1.60;;
2966;SDS011;1493;51.496;7.210;2024-02-26T01:21:05;3.47;;;1.60;;
2966;SDS011;1493;51.496;7.210;2024-02-26T01:23:34;3.83;;;2.03;;
2966;SDS011;1493;51.496;7.210;2024-02-26T01:26:00;3.77;;;1.77;;
2966;SDS011;1493;51.496;7.210;2024-02-26T01:28:29;2.87;;;1.73;;
2966;SDS011;1493;51.496;7.210;2024-02-26T01:30:56;2.00;;;1.40;;
2966;SDS011;1493;51.496;7.210;2024-02-26T01:33:24;3.60;;;2.03;;
2966;SDS011;1493;51.496;7.210;2024-02-26T01:35:53;2.60;;;1.80;;
2966;SDS011;1493;51.496;7.210;2024-02-26T01:38:20;3.60;;;1.70;;
2966;SDS011;1493;51.496;7.210;2024-02-26T01:40:47;2.33;;;1.70;;
2966;SDS011;1493;51.496;7.210;2024-02-26T01:43:13;2.63;;;1.80;;
2966;SDS011;1493;51.496;7.210;2024-02-26T01:45:40;2.50;;;1.77;;
2966;SDS011;1493;51.496;7.210;2024-02-26T01:48:07;2.47;;;1.60;;
2966;SDS011;1493;51.496;7.210;2024-02-26T01:50:35;7.13;;;1.90;;
2966;SDS011;1493;51.496;7.210;2024-02-26T01:53:04;2.60;;;1.53;;
2966;SDS011;1493;51.496;7.210;2024-02-26T01:55:32;2.77;;;2.00;;
2966;SDS011;1493;51.496;7.210;2024-02-26T01:58:00;3.63;;;1.90;;
2966;SDS011;1493;51.496;7.210;2024-02-26T02:00:27;3.20;;;1.80;;
2966;SDS011;1493;51.496;7.210;2024-02-26T02:02:54;3.60;;;1.83;;
2966;SDS011;1493;51.496;7.210;2024-02-26T02:05:21;3.10;;;1.63;;
2966;SDS011;1493;51.496;7.210;2024-02-26T02:07:49;3.07;;;1.83;;
2966;SDS011;1493;51.496;7.210;2024-02-26T02:10:18;2.37;;;1.50;;
2966;SDS011;1493;51.496;7.210;2024-02-26T02:12:47;2.40;;;1.40;;
2966;SDS011;1493;51.496;7.210;2024-02-26T02:15:15;3.03;;;1.60;;
2966;SDS011;1493;51.496;7.210;2024-02-26T02:17:41;2.53;;;1.40;;
2966;SDS011;1493;51.496;7.210;2024-02-26T02:20:09;3.60;;;1.90;;
2966;SDS011;1493;51.496;7.210;2024-02-26T02:22:42;2.90;;;1.33;;
2966;SDS011;1493;51.496;7.210;2024-02-26T02:25:09;2.73;;;1.67;;
2966;SDS011;1493;51.496;7.210;2024-02-26T02:27:36;2.00;;;1.20;;
2966;SDS011;1493;51.496;7.210;2024-02-26T02:30:03;2.00;;;1.40;;
2966;SDS011;1493;51.496;7.210;2024-02-26T02:32:32;2.57;;;1.40;;
2966;SDS011;1493;51.496;7.210;2024-02-26T02:34:59;3.33;;;1.30;;
2966;SDS011;1493;51.496;7.210;2024-02-26T02:37:26;4.30;;;1.30;;
2966;SDS011;1493;51.496;7.210;2024-02-26T02:39:54;2.53;;;1.40;;
2966;SDS011;1493;51.496;7.210;2024-02-26T02:42:22;2.30;;;1.27;;
2966;SDS011;1493;51.496;7.210;2024-02-26T02:44:49;2.90;;;1.87;;
2966;SDS011;1493;51.496;7.210;2024-02-26T02:47:16;2.30;;;1.70;;
2966;SDS011;1493;51.496;7.210;2024-02-26T02:49:43;2.67;;;1.43;;
2966;SDS011;1493;51.496;7.210;2024-02-26T02:52:10;3.57;;;1.43;;
2966;SDS011;1493;51.496;7.210;2024-02-26T02:54:37;1.53;;;1.00;;
2966;SDS011;1493;51.496;7.210;2024-02-26T02:57:07;2.53;;;1.50;;
2966;SDS011;1493;51.496;7.210;2024-02-26T02:59:34;1.97;;;1.50;;
2966;SDS011;1493;51.496;7.210;2024-02-26T03:02:01;2.77;;;1.70;;
2966;SDS011;1493;51.496;7.210;2024-02-26T03:04:28;2.33;;;1.63;;
2966;SDS011;1493;51.496;7.210;2024-02-26T03:06:55;2.40;;;1.60;;
2966;SDS011;1493;51.496;7.210;2024-02-26T03:09:22;3.77;;;1.40;;
2966;SDS011;1493;51.496;7.210;2024-02-26T03:11:49;2.33;;;1.53;;
2966;SDS011;1493;51.496;7.210;2024-02-26T03:14:18;2.97;;;1.50;;
2966;SDS011;1493;51.496;7.210;2024-02-26T03:16:45;1.97;;;1.33;;
2966;SDS011;1493;51.496;7.210;2024-02-26T03:19:13;1.90;;;1.20;;
2966;SDS011;1493;51.496;7.210;2024-02-26T03:21:40;1.77;;;1.20;;
2966;SDS011;1493;51.496;7.210;2024-02-26T03:24:07;3.07;;;1.53;;
2966;SDS011;1493;51.496;7.210;2024-02-26T03:26:35;2.00;;;1.40;;
2966;SDS011;1493;51.496;7.210;2024-02-26T03:29:02;3.30;;;1.30;;
2966;SDS011;1493;51.496;7.210;2024-02-26T03:31:30;3.80;;;1.30;;
2966;SDS011;1493;51.496;7.210;2024-02-26T03:33:57;1.90;;;1.37;;
2966;SDS011;1493;51.496;7.210;2024-02-26T03:36:24;2.73;;;1.83;;
2966;SDS011;1493;51.496;7.210;2024-02-26T03:38:50;2.33;;;1.20;;
2966;SDS011;1493;51.496;7.210;2024-02-26T03:41:17;2.70;;;1.20;;
2966;SDS011;1493;51.496;7.210;2024-02-26T03:43:43;2.40;;;1.50;;
2966;SDS011;1493;51.496;7.210;2024-02-26T03:46:10;2.47;;;1.90;;
2966;SDS011;1493;51.496;7.210;2024-02-26T03:48:40;1.80;;;1.30;;
2966;SDS011;1493;51.496;7.210;2024-02-26T03:51:08;2.63;;;1.57;;
2966;SDS011;1493;51.496;7.210;2024-02-26T03:53:35;2.77;;;1.57;;
2966;SDS011;1493;51.496;7.210;2024-02-26T03:56:03;2.17;;;1.53;;
2966;SDS011;1493;51.496;7.210;2024-02-26T03:58:30;2.40;;;1.63;;
2966;SDS011;1493;51.496;7.210;2024-02-26T04:00:57;2.00;;;1.77;;
2966;SDS011;1493;51.496;7.210;2024-02-26T04:03:37;2.13;;;1.50;;
2966;SDS011;1493;51.496;7.210;2024-02-26T04:06:08;3.07;;;1.67;;
2966;SDS011;1493;51.496;7.210;2024-02-26T04:08:35;4.63;;;1.60;;
2966;SDS011;1493;51.496;7.210;2024-02-26T04:11:02;2.70;;;1.67;;
2966;SDS011;1493;51.496;7.210;2024-02-26T04:13:32;3.00;;;1.60;;
2966;SDS011;1493;51.496;7.210;2024-02-26T04:15:59;1.93;;;1.67;;
2966;SDS011;1493;51.496;7.210;2024-02-26T04:18:27;2.43;;;2.00;;
2966;SDS011;1493;51.496;7.210;2024-02-26T04:20:54;2.03;;;1.40;;
2966;SDS011;1493;51.496;7.210;2024-02-26T04:23:23;2.27;;;1.70;;
2966;SDS011;1493;51.496;7.210;2024-02-26T04:25:50;5.50;;;1.90;;
2966;SDS011;1493;51.496;7.210;2024-02-26T04:28:18;1.73;;;1.37;;
2966;SDS011;1493;51.496;7.210;2024-02-26T04:30:46;2.57;;;1.70;;
2966;SDS011;1493;51.496;7.210;2024-02-26T04:33:13;2.33;;;1.73;;
2966;SDS011;1493;51.496;7.210;2024-02-26T04:35:40;5.73;;;2.30;;
2966;SDS011;1493;51.496;7.210;2024-02-26T04:38:07;4.40;;;1.90;;
2966;SDS011;1493;51.496;7.210;2024-02-26T04:40:35;3.33;;;1.80;;
2966;SDS011;1493;51.496;7.210;2024-02-26T04:43:02;2.93;;;1.87;;
2966;SDS011;1493;51.496;7.210;2024-02-26T04:45:46;3.47;;;1.83;;
2966;SDS011;1493;51.496;7.210;2024-02-26T04:48:13;2.67;;;1.43;;
2966;SDS011;1493;51.496;7.210;2024-02-26T04:50:40;2.30;;;1.60;;
2966;SDS011;1493;51.496;7.210;2024-02-26T04:53:07;2.00;;;1.70;;
2966;SDS011;1493;51.496;7.210;2024-02-26T04:55:36;2.30;;;2.10;;
2966;SDS011;1493;51.496;7.210;2024-02-26T04:58:06;2.40;;;2.13;;
2966;SDS011;1493;51.496;7.210;2024-02-26T05:00:37;3.33;;;1.90;;
2966;SDS011;1493;51.496;7.210;2024-02-26T05:03:04;4.40;;;1.90;;
2966;SDS011;1493;51.496;7.210;2024-02-26T05:05:31;2.23;;;2.00;;
2966;SDS011;1493;51.496;7.210;2024-02-26T05:07:58;2.30;;;1.73;;
2966;SDS011;1493;51.496;7.210;2024-02-26T05:10:25;2.53;;;1.90;;
2966;SDS011;1493;51.496;7.210;2024-02-26T05:12:53;2.73;;;1.80;;
2966;SDS011;1493;51.496;7.210;2024-02-26T05:15:20;4.97;;;2.20;;
2966;SDS011;1493;51.496;7.210;2024-02-26T05:17:47;3.50;;;2.30;;
2966;SDS011;1493;51.496;7.210;2024-02-26T05:20:13;3.43;;;2.27;;
2966;SDS011;1493;51.496;7.210;2024-02-26T05:22:40;3.50;;;2.00;;
2966;SDS011;1493;51.496;7.210;2024-02-26T05:25:08;4.17;;;1.93;;
2966;SDS011;1493;51.496;7.210;2024-02-26T05:27:35;3.53;;;2.03;;
2966;SDS011;1493;51.496;7.210;2024-02-26T05:30:03;3.20;;;1.97;;
2966;SDS011;1493;51.496;7.210;2024-02-26T05:32:31;3.27;;;2.00;;
2966;SDS011;1493;51.496;7.210;2024-02-26T05:34:58;3.67;;;2.77;;
2966;SDS011;1493;51.496;7.210;2024-02-26T05:37:25;3.70;;;1.97;;
2966;SDS011;1493;51.496;7.210;2024-02-26T05:39:52;3.00;;;2.33;;
2966;SDS011;1493;51.496;7.210;2024-02-26T05:42:19;3.50;;;2.20;;
2966;SDS011;1493;51.496;7.210;2024-02-26T05:44:46;2.43;;;2.07;;
2966;SDS011;1493;51.496;7.210;2024-02-26T05:47:15;5.60;;;2.43;;
2966;SDS011;1493;51.496;7.210;2024-02-26T05:49:43;3.83;;;2.20;;
2966;SDS011;1493;51.496;7.210;2024-02-26T05:52:10;2.40;;;1.87;;
2966;SDS011;1493;51.496;7.210;2024-02-26T05:54:36;2.93;;;1.90;;
2966;SDS011;1493;51.496;7.210;2024-02-26T05:57:04;3.03;;;2.00;;
2966;SDS011;1493;51.496;7.210;2024-02-26T05:59:31;5.53;;;2.37;;
2966;SDS011;1493;51.496;7.210;2024-02-26T06:02:02;4.77;;;2.23;;
2966;SDS011;1493;51.496;7.210;2024-02-26T06:04:32;3.87;;;2.10;;
2966;SDS011;1493;51.496;7.210;2024-02-26T06:07:02;4.30;;;2.60;;
2966;SDS011;1493;51.496;7.210;2024-02-26T06:09:30;3.50;;;2.07;;
2966;SDS011;1493;51.496;7.210;2024-02-26T06:11:57;5.60;;;2.00;;
2966;SDS011;1493;51.496;7.210;2024-02-26T06:14:23;5.90;;;2.53;;
2966;SDS011;1493;51.496;7.210;2024-02-26T06:16:50;3.47;;;2.00;;
2966;SDS011;1493;51.496;7.210;2024-02-26T06:19:17;3.80;;;2.27;;
2966;SDS011;1493;51.496;7.210;2024-02-26T06:21:47;2.87;;;1.80;;
2966;SDS011;1493;51.496;7.210;2024-02-26T06:24:18;6.27;;;2.23;;
2966;SDS011;1493;51.496;7.210;2024-02-26T06:26:46;4.73;;;2.60;;
2966;SDS011;1493;51.496;7.210;2024-02-26T06:29:14;9.00;;;2.47;;
2966;SDS011;1493;51.496;7.210;2024-02-26T06:31:46;4.73;;;2.23;;
2966;SDS011;1493;51.496;7.210;2024-02-26T06:34:15;2.93;;;2.47;;
2966;SDS011;1493;51.496;7.210;2024-02-26T06:36:47;3.30;;;2.60;;
2966;SDS011;1493;51.496;7.210;2024-02-26T06:39:14;3.90;;;2.50;;
2966;SDS011;1493;51.496;7.210;2024-02-26T06:41:41;4.33;;;2.10;;
2966;SDS011;1493;51.496;7.210;2024-02-26T06:44:08;4.23;;;3.00;;
2966;SDS011;1493;51.496;7.210;2024-02-26T06:46:35;4.50;;;2.60;;
2966;SDS011;1493;51.496;7.210;2024-02-26T06:49:04;2.33;;;2.10;;
2966;SDS011;1493;51.496;7.210;2024-02-26T06:51:31;4.10;;;2.00;;
2966;SDS011;1493;51.496;7.210;2024-02-26T06:53:59;5.80;;;3.27;;
2966;SDS011;1493;51.496;7.210;2024-02-26T06:56:28;4.20;;;2.53;;
2966;SDS011;1493;51.496;7.210;2024-02-26T06:58:54;3.77;;;2.30;;
2966;SDS011;1493;51.496;7.210;2024-02-26T07:01:24;3.00;;;2.20;;
2966;SDS011;1493;51.496;7.210;2024-02-26T07:03:56;4.37;;;2.37;;
2966;SDS011;1493;51.496;7.210;2024-02-26T07:09:49;2.90;;;2.23;;
2966;SDS011;1493;51.496;7.210;2024-02-26T07:12:36;2.97;;;2.30;;
2966;SDS011;1493;51.496;7.210;2024-02-26T07:15:06;2.87;;;2.30;;
2966;SDS011;1493;51.496;7.210;2024-02-26T07:17:37;4.67;;;2.00;;
2966;SDS011;1493;51.496;7.210;2024-02-26T07:20:15;3.13;;;2.37;;
2966;SDS011;1493;51.496;7.210;2024-02-26T07:22:43;9.10;;;2.83;;
2966;SDS011;1493;51.496;7.210;2024-02-26T07:25:25;4.93;;;2.70;;
2966;SDS011;1493;51.496;7.210;2024-02-26T07:28:10;5.73;;;2.47;;
2966;SDS011;1493;51.496;7.210;2024-02-26T07:30:38;3.00;;;2.20;;
2966;SDS011;1493;51.496;7.210;2024-02-26T07:33:24;2.77;;;2.20;;
2966;SDS011;1493;51.496;7.210;2024-02-26T07:35:54;3.67;;;2.70;;
2966;SDS011;1493;51.496;7.210;2024-02-26T07:38:21;3.03;;;2.23;;
2966;SDS011;1493;51.496;7.210;2024-02-26T07:40:53;3.50;;;2.93;;
2966;SDS011;1493;51.496;7.210;2024-02-26T07:43:22;2.80;;;2.30;;
2966;SDS011;1493;51.496;7.210;2024-02-26T07:45:49;3.33;;;2.57;;
2966;SDS011;1493;51.496;7.210;2024-02-26T07:48:16;3.83;;;2.50;;
2966;SDS011;1493;51.496;7.210;2024-02-26T07:50:43;4.27;;;2.57;;
2966;SDS011;1493;51.496;7.210;2024-02-26T07:53:09;4.80;;;2.93;;
2966;SDS011;1493;51.496;7.210;2024-02-26T07:55:36;2.87;;;2.27;;
2966;SDS011;1493;51.496;7.210;2024-02-26T07:58:10;4.47;;;3.00;;
2966;SDS011;1493;51.496;7.210;2024-02-26T08:03:45;2.93;;;2.63;;
2966;SDS011;1493;51.496;7.210;2024-02-26T08:06:17;3.60;;;2.50;;
2966;SDS011;1493;51.496;7.210;2024-02-26T08:09:09;7.03;;;2.80;;
2966;SDS011;1493;51.496;7.210;2024-02-26T08:11:37;2.93;;;1.97;;
2966;SDS011;1493;51.496;7.210;2024-02-26T08:14:21;4.83;;;2.57;;
2966;SDS011;1493;51.496;7.210;2024-02-26T08:17:10;3.20;;;2.47;;
2966;SDS011;1493;51.496;7.210;2024-02-26T08:19:38;3.83;;;2.50;;
2966;SDS011;1493;51.496;7.210;2024-02-26T08:22:10;5.87;;;2.57;;
2966;SDS011;1493;51.496;7.210;2024-02-26T08:24:45;2.63;;;1.80;;
2966;SDS011;1493;51.496;7.210;2024-02-26T08:27:32;3.93;;;2.23;;
2966;SDS011;1493;51.496;7.210;2024-02-26T08:30:15;4.33;;;2.23;;
2966;SDS011;1493;51.496;7.210;2024-02-26T08:32:44;3.70;;;2.50;;
2966;SDS011;1493;51.496;7.210;2024-02-26T08:35:14;2.97;;;2.40;;
2966;SDS011;1493;51.496;7.210;2024-02-26T08:37:58;4.03;;;2.87;;
2966;SDS011;1493;51.496;7.210;2024-02-26T08:40:28;6.53;;;3.20;;
2966;SDS011;1493;51.496;7.210;2024-02-26T08:42:57;4.33;;;2.70;;
2966;SDS011;1493;51.496;7.210;2024-02-26T08:45:33;3.77;;;2.53;;
2966;SDS011;1493;51.496;7.210;2024-02-26T08:48:10;5.13;;;2.60;;
2966;SDS011;1493;51.496;7.210;2024-02-26T08:50:37;3.33;;;2.37;;
2966;SDS011;1493;51.496;7.210;2024-02-26T08:53:07;3.50;;;2.60;;
2966;SDS011;1493;51.496;7.210;2024-02-26T08:55:41;4.13;;;2.87;;
2966;SDS011;1493;51.496;7.210;2024-02-26T08:58:13;3.13;;;2.80;;
2966;SDS011;1493;51.496;7.210;2024-02-26T09:00:48;3.80;;;3.00;;
2966;SDS011;1493;51.496;7.210;2024-02-26T09:03:15;6.30;;;3.20;;
2966;SDS011;1493;51.496;7.210;2024-02-26T09:05:42;9.77;;;3.33;;
2966;SDS011;1493;51.496;7.210;2024-02-26T09:08:09;4.47;;;3.07;;
2966;SDS011;1493;51.496;7.210;2024-02-26T09:10:36;4.93;;;2.83;;
2966;SDS011;1493;51.496;7.210;2024-02-26T09:13:04;3.60;;;2.50;;
2966;SDS011;1493;51.496;7.210;2024-02-26T09:15:30;5.47;;;4.20;;
2966;SDS011;1493;51.496;7.210;2024-02-26T09:17:59;4.67;;;3.20;;
2966;SDS011;1493;51.496;7.210;2024-02-26T09:20:26;4.07;;;3.53;;
2966;SDS011;1493;51.496;7.210;2024-02-26T09:22:53;4.17;;;2.80;;
2966;SDS011;1493;51.496;7.210;2024-02-26T09:25:20;4.90;;;3.10;;
2966;SDS011;1493;51.496;7.210;2024-02-26T09:27:47;3.73;;;2.90;;
2966;SDS011;1493;51.496;7.210;2024-02-26T09:30:14;4.00;;;3.27;;
2966;SDS011;1493;51.496;7.210;2024-02-26T09:32:40;4.90;;;3.47;;
2966;SDS011;1493;51.496;7.210;2024-02-26T09:35:09;6.97;;;3.50;;
2966;SDS011;1493;51.496;7.210;2024-02-26T09:37:35;5.60;;;3.57;;
2966;SDS011;1493;51.496;7.210;2024-02-26T09:40:03;4.97;;;4.30;;
2966;SDS011;1493;51.496;7.210;2024-02-26T09:42:31;4.63;;;3.40;;
2966;SDS011;1493;51.496;7.210;2024-02-26T09:44:59;4.17;;;3.10;;
2966;SDS011;1493;51.496;7.210;2024-02-26T09:47:28;5.73;;;3.37;;
2966;SDS011;1493;51.496;7.210;2024-02-26T09:49:57;4.10;;;3.63;;
2966;SDS011;1493;51.496;7.210;2024-02-26T09:52:27;4.80;;;3.50;;
2966;SDS011;1493;51.496;7.210;2024-02-26T09:54:57;5.00;;;3.47;;
2966;SDS011;1493;51.496;7.210;2024-02-26T09:57:23;3.17;;;2.87;;
2966;SDS011;1493;51.496;7.210;2024-02-26T09:59:51;5.73;;;3.23;;
2966;SDS011;1493;51.496;7.210;2024-02-26T10:02:20;8.53;;;3.50;;
2966;SDS011;1493;51.496;7.210;2024-02-26T10:04:47;5.90;;;4.30;;
2966;SDS011;1493;51.496;7.210;2024-02-26T10:07:17;6.23;;;4.37;;
2966;SDS011;1493;51.496;7.210;2024-02-26T10:09:45;6.23;;;3.67;;
2966;SDS011;1493;51.496;7.210;2024-02-26T10:12:15;5.10;;;3.67;;
2966;SDS011;1493;51.496;7.210;2024-02-26T10:14:43;4.13;;;2.97;;
2966;SDS011;1493;51.496;7.210;2024-02-26T10:17:09;6.10;;;3.70;;
2966;SDS011;1493;51.496;7.210;2024-02-26T10:19:37;5.93;;;3.90;;
2966;SDS011;1493;51.496;7.210;2024-02-26T10:22:03;5.73;;;3.83;;
2966;SDS011;1493;51.496;7.210;2024-02-26T10:24:30;9.57;;;3.70;;
2966;SDS011;1493;51.496;7.210;2024-02-26T10:26:59;5.70;;;4.53;;
2966;SDS011;1493;51.496;7.210;2024-02-26T10:29:26;6.53;;;4.30;;
2966;SDS011;1493;51.496;7.210;2024-02-26T10:31:53;5.50;;;4.07;;
2966;SDS011;1493;51.496;7.210;2024-02-26T10:34:20;6.50;;;4.37;;
2966;SDS011;1493;51.496;7.210;2024-02-26T10:36:47;7.03;;;4.53;;
2966;SDS011;1493;51.496;7.210;2024-02-26T10:39:15;5.60;;;4.10;;
2966;SDS011;1493;51.496;7.210;2024-02-26T10:41:42;6.50;;;4.53;;
2966;SDS011;1493;51.496;7.210;2024-02-26T10:44:11;5.90;;;4.40;;
2966;SDS011;1493;51.496;7.210;2024-02-26T10:46:39;5.37;;;4.10;;
2966;SDS011;1493;51.496;7.210;2024-02-26T10:49:08;5.10;;;3.93;;
2966;SDS011;1493;51.496;7.210;2024-02-26T10:51:39;8.53;;;5.17;;
2966;SDS011;1493;51.496;7.210;2024-02-26T10:54:10;6.10;;;4.33;;
2966;SDS011;1493;51.496;7.210;2024-02-26T10:56:41;6.70;;;4.17;;
2966;SDS011;1493;51.496;7.210;2024-02-26T10:59:09;6.57;;;4.20;;
2966;SDS011;1493;51.496;7.210;2024-02-26T11:01:37;8.53;;;4.87;;
2966;SDS011;1493;51.496;7.210;2024-02-26T11:04:06;7.80;;;4.10;;
2966;SDS011;1493;51.496;7.210;2024-02-26T11:06:36;6.23;;;4.20;;
2966;SDS011;1493;51.496;7.210;2024-02-26T11:09:04;5.97;;;4.60;;
2966;SDS011;1493;51.496;7.210;2024-02-26T11:11:32;8.37;;;4.90;;
2966;SDS011;1493;51.496;7.210;2024-02-26T11:14:01;5.40;;;4.10;;
2966;SDS011;1493;51.496;7.210;2024-02-26T11:16:29;5.37;;;4.10;;
2966;SDS011;1493;51.496;7.210;2024-02-26T11:18:58;5.83;;;4.27;;
2966;SDS011;1493;51.496;7.210;2024-02-26T11:21:28;6.00;;;4.27;;
2966;SDS011;1493;51.496;7.210;2024-02-26T11:24:03;5.63;;;3.60;;
2966;SDS011;1493;51.496;7.210;2024-02-26T11:26:32;3.90;;;3.23;;
2966;SDS011;1493;51.496;7.210;2024-02-26T11:29:00;4.30;;;3.70;;
2966;SDS011;1493;51.496;7.210;2024-02-26T11:31:27;4.70;;;3.90;;
2966;SDS011;1493;51.496;7.210;2024-02-26T11:33:54;4.43;;;3.57;;
2966;SDS011;1493;51.496;7.210;2024-02-26T11:36:24;5.40;;;3.97;;
2966;SDS011;1493;51.496;7.210;2024-02-26T11:38:51;4.40;;;3.37;;
2966;SDS011;1493;51.496;7.210;2024-02-26T11:41:18;5.73;;;3.90;;
2966;SDS011;1493;51.496;7.210;2024-02-26T11:43:49;4.53;;;4.10;;
2966;SDS011;1493;51.496;7.210;2024-02-26T11:46:27;6.03;;;4.17;;
2966;SDS011;1493;51.496;7.210;2024-02-26T11:48:58;5.13;;;4.10;;
2966;SDS011;1493;51.496;7.210;2024-02-26T11:51:27;7.10;;;3.77;;
2966;SDS011;1493;51.496;7.210;2024-02-26T11:53:59;5.63;;;3.97;;
2966;SDS011;1493;51.496;7.210;2024-02-26T11:56:26;6.23;;;3.80;;
2966;SDS011;1493;51.496;7.210;2024-02-26T11:58:58;5.97;;;4.50;;
2966;SDS011;1493;51.496;7.210;2024-02-26T12:01:42;6.97;;;4.90;;
2966;SDS011;1493;51.496;7.210;2024-02-26T12:04:14;9.37;;;4.70;;
2966;SDS011;1493;51.496;7.210;2024-02-26T12:06:49;6.60;;;4.70;;
2966;SDS011;1493;51.496;7.210;2024-02-26T12:09:33;6.40;;;4.90;;
2966;SDS011;1493;51.496;7.210;2024-02-26T12:12:01;6.27;;;4.40;;
2966;SDS011;1493;51.496;7.210;2024-02-26T12:14:29;7.50;;;4.83;;
2966;SDS011;1493;51.496;7.210;2024-02-26T12:16:56;6.73;;;5.27;;
2966;SDS011;1493;51.496;7.210;2024-02-26T12:19:23;6.20;;;5.60;;
2966;SDS011;1493;51.496;7.210;2024-02-26T12:21:52;8.40;;;5.97;;
2966;SDS011;1493;51.496;7.210;2024-02-26T12:24:20;6.60;;;5.57;;
2966;SDS011;1493;51.496;7.210;2024-02-26T12:26:47;8.57;;;5.60;;
2966;SDS011;1493;51.496;7.210;2024-02-26T12:29:14;8.20;;;6.43;;
2966;SDS011;1493;51.496;7.210;2024-02-26T12:31:41;9.60;;;6.07;;
2966;SDS011;1493;51.496;7.210;2024-02-26T12:34:09;7.53;;;5.20;;
2966;SDS011;1493;51.496;7.210;2024-02-26T12:36:36;5.30;;;4.43;;
2966;SDS011;1493;51.496;7.210;2024-02-26T12:39:04;10.40;;;5.70;;
2966;SDS011;1493;51.496;7.210;2024-02-26T12:41:32;6.50;;;5.07;;
2966;SDS011;1493;51.496;7.210;2024-02-26T12:43:59;8.40;;;4.90;;
2966;SDS011;1493;51.496;7.210;2024-02-26T12:46:26;7.53;;;5.57;;
2966;SDS011;1493;51.496;7.210;2024-02-26T12:48:55;7.60;;;4.67;;
2966;SDS011;1493;51.496;7.210;2024-02-26T12:51:23;6.27;;;5.03;;
2966;SDS011;1493;51.496;7.210;2024-02-26T12:53:51;5.80;;;4.30;;
2966;SDS011;1493;51.496;7.210;2024-02-26T12:56:20;6.13;;;4.50;;
2966;SDS011;1493;51.496;7.210;2024-02-26T12:58:48;7.03;;;5.00;;
2966;SDS011;1493;51.496;7.210;2024-02-26T13:01:18;7.50;;;4.17;;
2966;SDS011;1493;51.496;7.210;2024-02-26T13:03:48;7.13;;;4.17;;
2966;SDS011;1493;51.496;7.210;2024-02-26T13:06:15;5.13;;;3.80;;
2966;SDS011;1493;51.496;7.210;2024-02-26T13:08:43;6.70;;;3.90;;
2966;SDS011;1493;51.496;7.210;2024-02-26T13:11:10;7.13;;;4.13;;
2966;SDS011;1493;51.496;7.210;2024-02-26T13:13:38;5.97;;;4.07;;
2966;SDS011;1493;51.496;7.210;2024-02-26T13:16:06;7.53;;;3.90;;
2966;SDS011;1493;51.496;7.210;2024-02-26T13:18:40;5.23;;;4.07;;
2966;SDS011;1493;51.496;7.210;2024-02-26T13:21:08;5.70;;;4.70;;
2966;SDS011;1493;51.496;7.210;2024-02-26T13:23:35;6.80;;;4.50;;
2966;SDS011;1493;51.496;7.210;2024-02-26T13:26:02;7.80;;;4.20;;
2966;SDS011;1493;51.496;7.210;2024-02-26T13:28:29;6.23;;;3.63;;
2966;SDS011;1493;51.496;7.210;2024-02-26T13:30:57;5.83;;;3.90;;
2966;SDS011;1493;51.496;7.210;2024-02-26T13:33:26;4.93;;;3.60;;
2966;SDS011;1493;51.496;7.210;2024-02-26T13:35:54;4.57;;;3.70;;
2966;SDS011;1493;51.496;7.210;2024-02-26T13:38:21;6.67;;;4.87;;
2966;SDS011;1493;51.496;7.210;2024-02-26T13:40:48;5.07;;;4.30;;
2966;SDS011;1493;51.496;7.210;2024-02-26T13:43:15;5.30;;;3.80;;
2966;SDS011;1493;51.496;7.210;2024-02-26T13:45:42;6.80;;;3.80;;
2966;SDS011;1493;51.496;7.210;2024-02-26T13:48:12;4.30;;;3.23;;
2966;SDS011;1493;51.496;7.210;2024-02-26T13:50:39;5.93;;;4.10;;
2966;SDS011;1493;51.496;7.210;2024-02-26T13:53:08;4.73;;;3.67;;
2966;SDS011;1493;51.496;7.210;2024-02-26T13:55:36;7.77;;;4.47;;
2966;SDS011;1493;51.496;7.210;2024-02-26T13:58:03;5.07;;;3.50;;
2966;SDS011;1493;51.496;7.210;2024-02-26T14:00:31;4.73;;;3.80;;
2966;SDS011;1493;51.496;7.210;2024-02-26T14:02:58;4.67;;;3.47;;
2966;SDS011;1493;51.496;7.210;2024-02-26T14:05:27;7.03;;;4.20;;
2966;SDS011;1493;51.496;7.210;2024-02-26T14:07:54;6.10;;;3.73;;
2966;SDS011;1493;51.496;7.210;2024-02-26T14:10:21;4.90;;;3.83;;
2966;SDS011;1493;51.496;7.210;2024-02-26T14:12:48;5.10;;;2.87;;
2966;SDS011;1493;51.496;7.210;2024-02-26T14:15:15;5.30;;;3.57;;
2966;SDS011;1493;51.496;7.210;2024-02-26T14:17:42;6.33;;;4.27;;
2966;SDS011;1493;51.496;7.210;2024-02-26T14:20:11;7.20;;;4.00;;
2966;SDS011;1493;51.496;7.210;2024-02-26T14:22:39;8.27;;;4.27;;
2966;SDS011;1493;51.496;7.210;2024-02-26T14:25:06;4.83;;;3.60;;
2966;SDS011;1493;51.496;7.210;2024-02-26T14:27:34;4.57;;;3.50;;
2966;SDS011;1493;51.496;7.210;2024-02-26T14:30:01;3.70;;;2.83;;
2966;SDS011;1493;51.496;7.210;2024-02-26T14:32:29;4.63;;;3.50;;
2966;SDS011;1493;51.496;7.210;2024-02-26T14:35:00;3.90;;;3.20;;
2966;SDS011;1493;51.496;7.210;2024-02-26T14:37:27;4.93;;;4.03;;
2966;SDS011;1493;51.496;7.210;2024-02-26T14:39:56;6.50;;;4.90;;
2966;SDS011;1493;51.496;7.210;2024-02-26T14:42:22;3.97;;;3.60;;
2966;SDS011;1493;51.496;7.210;2024-02-26T14:44:49;3.93;;;3.53;;
2966;SDS011;1493;51.496;7.210;2024-02-26T14:47:16;5.37;;;3.87;;
2966;SDS011;1493;51.496;7.210;2024-02-26T14:49:43;5.67;;;3.67;;
2966;SDS011;1493;51.496;7.210;2024-02-26T14:52:12;4.40;;;3.13;;
2966;SDS011;1493;51.496;7.210;2024-02-26T14:54:39;6.00;;;3.43;;
2966;SDS011;1493;51.496;7.210;2024-02-26T14:57:08;5.17;;;3.53;;
2966;SDS011;1493;51.496;7.210;2024-02-26T14:59:35;5.80;;;3.40;;
2966;SDS011;1493;51.496;7.210;2024-02-26T15:02:02;4.30;;;3.40;;
2966;SDS011;1493;51.496;7.210;2024-02-26T15:04:29;5.10;;;3.10;;
2966;SDS011;1493;51.496;7.210;2024-02-26T15:06:56;4.70;;;3.30;;
2966;SDS011;1493;51.496;7.210;2024-02-26T15:09:23;4.57;;;2.93;;
2966;SDS011;1493;51.496;7.210;2024-02-26T15:11:50;6.00;;;3.07;;
2966;SDS011;1493;51.496;7.210;2024-02-26T15:14:18;3.40;;;3.00;;
2966;SDS011;1493;51.496;7.210;2024-02-26T15:16:45;3.90;;;2.50;;
2966;SDS011;1493;51.496;7.210;2024-02-26T15:19:11;3.37;;;2.47;;
2966;SDS011;1493;51.496;7.210;2024-02-26T15:21:42;2.93;;;2.63;;
2966;SDS011;1493;51.496;7.210;2024-02-26T15:24:09;4.53;;;3.37;;
2966;SDS011;1493;51.496;7.210;2024-02-26T15:26:36;3.00;;;2.17;;
2966;SDS011;1493;51.496;7.210;2024-02-26T15:29:03;3.20;;;2.00;;